sensor_id;sensor_type;location;lat;lon;timestamp;temperature;humidity
15072;DHT22;7635;56.696;13.002;2023-05-01T00:01:29;4.10;99.90
15072;DHT22;7635;56.696;13.002;2023-05-01T00:03:56;4.10;99.90
15072;DHT22;7635;56.696;13.002;2023-05-01T00:06:22;4.00;99.90
15072;DHT22;7635;56.696;13.002;2023-05-01T00:08:49;4.00;99.90
15072;DHT22;7635;56.696;13.002;2023-05-01T00:11:16;4.00;99.90
15072;DHT22;7635;56.696;13.002;2023-05-01T00:13:44;4.00;99.90
15072;DHT22;7635;56.696;13.002;2023-05-01T00:16:11;4.00;99.90
15072;DHT22;7635;56.696;13.002;2023-05-01T00:18:38;3.90;99.90
15072;DHT22;7635;56.696;13.002;2023-05-01T00:21:05;3.90;99.90
15072;DHT22;7635;56.696;13.002;2023-05-01T00:23:31;3.90;99.90
15072;DHT22;7635;56.696;13.002;2023-05-01T00:25:58;3.80;99.90
15072;DHT22;7635;56.696;13.002;2023-05-01T00:28:25;3.80;99.90
15072;DHT22;7635;56.696;13.002;2023-05-01T00:30:53;3.70;99.90
15072;DHT22;7635;56.696;13.002;2023-05-01T00:33:19;3.70;99.90
15072;DHT22;7635;56.696;13.002;2023-05-01T00:35:46;3.80;99.90
15072;DHT22;7635;56.696;13.002;2023-05-01T00:38:13;3.80;99.90
15072;DHT22;7635;56.696;13.002;2023-05-01T00:40:43;3.80;99.90
15072;DHT22;7635;56.696;13.002;2023-05-01T00:43:12;3.80;99.90
15072;DHT22;7635;56.696;13.002;2023-05-01T00:45:41;3.80;99.90
15072;DHT22;7635;56.696;13.002;2023-05-01T00:48:10;3.90;99.90
15072;DHT22;7635;56.696;13.002;2023-05-01T00:50:37;3.90;99.90
15072;DHT22;7635;56.696;13.002;2023-05-01T00:53:04;4.00;99.90
15072;DHT22;7635;56.696;13.002;2023-05-01T00:55:31;4.00;99.90
15072;DHT22;7635;56.696;13.002;2023-05-01T00:57:59;4.00;99.90
15072;DHT22;7635;56.696;13.002;2023-05-01T01:00:26;4.10;99.90
15072;DHT22;7635;56.696;13.002;2023-05-01T01:02:54;4.10;99.90
15072;DHT22;7635;56.696;13.002;2023-05-01T01:05:24;4.10;99.90
15072;DHT22;7635;56.696;13.002;2023-05-01T01:07:58;4.10;99.90
15072;DHT22;7635;56.696;13.002;2023-05-01T01:10:34;4.10;99.90
15072;DHT22;7635;56.696;13.002;2023-05-01T01:13:08;4.10;99.90
15072;DHT22;7635;56.696;13.002;2023-05-01T01:15:43;4.10;99.90
15072;DHT22;7635;56.696;13.002;2023-05-01T01:18:16;4.10;99.90
15072;DHT22;7635;56.696;13.002;2023-05-01T01:20:48;4.00;99.90
15072;DHT22;7635;56.696;13.002;2023-05-01T01:23:35;3.90;99.90
15072;DHT22;7635;56.696;13.002;2023-05-01T01:26:17;3.80;99.90
15072;DHT22;7635;56.696;13.002;2023-05-01T01:29:35;3.80;99.90
15072;DHT22;7635;56.696;13.002;2023-05-01T01:32:15;3.70;99.90
15072;DHT22;7635;56.696;13.002;2023-05-01T01:34:49;3.70;99.90
15072;DHT22;7635;56.696;13.002;2023-05-01T01:37:21;3.80;99.90
15072;DHT22;7635;56.696;13.002;2023-05-01T01:39:52;3.80;99.90
15072;DHT22;7635;56.696;13.002;2023-05-01T01:42:21;3.80;99.90
15072;DHT22;7635;56.696;13.002;2023-05-01T01:44:53;3.90;99.90
15072;DHT22;7635;56.696;13.002;2023-05-01T01:47:24;3.90;99.90
15072;DHT22;7635;56.696;13.002;2023-05-01T01:49:54;4.00;99.90
15072;DHT22;7635;56.696;13.002;2023-05-01T01:52:23;4.00;99.90
15072;DHT22;7635;56.696;13.002;2023-05-01T01:54:54;4.00;99.90
15072;DHT22;7635;56.696;13.002;2023-05-01T01:57:23;4.10;99.90
15072;DHT22;7635;56.696;13.002;2023-05-01T01:59:52;4.10;99.90
15072;DHT22;7635;56.696;13.002;2023-05-01T02:02:19;4.10;99.90
15072;DHT22;7635;56.696;13.002;2023-05-01T02:04:47;4.20;99.90
15072;DHT22;7635;56.696;13.002;2023-05-01T02:07:16;4.20;99.90
15072;DHT22;7635;56.696;13.002;2023-05-01T02:09:45;4.20;99.90
15072;DHT22;7635;56.696;13.002;2023-05-01T02:12:13;4.30;99.90
15072;DHT22;7635;56.696;13.002;2023-05-01T02:14:41;4.30;99.90
15072;DHT22;7635;56.696;13.002;2023-05-01T02:17:09;4.30;99.90
15072;DHT22;7635;56.696;13.002;2023-05-01T02:19:37;4.30;99.90
15072;DHT22;7635;56.696;13.002;2023-05-01T02:22:04;4.30;99.90
15072;DHT22;7635;56.696;13.002;2023-05-01T02:24:34;4.30;99.90
15072;DHT22;7635;56.696;13.002;2023-05-01T02:27:06;4.20;99.90
15072;DHT22;7635;56.696;13.002;2023-05-01T02:29:33;4.30;99.90
15072;DHT22;7635;56.696;13.002;2023-05-01T02:32:00;4.30;99.90
15072;DHT22;7635;56.696;13.002;2023-05-01T02:34:27;4.30;99.90
15072;DHT22;7635;56.696;13.002;2023-05-01T02:36:54;4.30;99.90
15072;DHT22;7635;56.696;13.002;2023-05-01T02:39:21;4.40;99.90
15072;DHT22;7635;56.696;13.002;2023-05-01T02:41:51;4.40;99.90
15072;DHT22;7635;56.696;13.002;2023-05-01T02:44:20;4.40;99.90
15072;DHT22;7635;56.696;13.002;2023-05-01T02:46:49;4.40;99.90
15072;DHT22;7635;56.696;13.002;2023-05-01T02:49:17;4.40;99.90
15072;DHT22;7635;56.696;13.002;2023-05-01T02:51:45;4.40;99.90
15072;DHT22;7635;56.696;13.002;2023-05-01T02:54:13;4.50;99.90
15072;DHT22;7635;56.696;13.002;2023-05-01T02:56:40;4.50;99.90
15072;DHT22;7635;56.696;13.002;2023-05-01T02:59:08;4.50;99.90
15072;DHT22;7635;56.696;13.002;2023-05-01T03:01:35;4.50;99.90
15072;DHT22;7635;56.696;13.002;2023-05-01T03:04:02;4.60;99.90
15072;DHT22;7635;56.696;13.002;2023-05-01T03:06:29;4.60;99.90
15072;DHT22;7635;56.696;13.002;2023-05-01T03:08:56;4.60;99.90
15072;DHT22;7635;56.696;13.002;2023-05-01T03:11:22;4.60;99.90
15072;DHT22;7635;56.696;13.002;2023-05-01T03:13:49;4.60;99.90
15072;DHT22;7635;56.696;13.002;2023-05-01T03:16:17;4.60;99.90
15072;DHT22;7635;56.696;13.002;2023-05-01T03:18:44;4.70;99.90
15072;DHT22;7635;56.696;13.002;2023-05-01T03:21:11;4.70;99.90
15072;DHT22;7635;56.696;13.002;2023-05-01T03:23:38;4.70;99.90
15072;DHT22;7635;56.696;13.002;2023-05-01T03:26:04;4.70;99.90
15072;DHT22;7635;56.696;13.002;2023-05-01T03:28:32;4.70;99.90
15072;DHT22;7635;56.696;13.002;2023-05-01T03:30:58;4.80;99.90
15072;DHT22;7635;56.696;13.002;2023-05-01T03:33:26;4.80;99.90
15072;DHT22;7635;56.696;13.002;2023-05-01T03:36:00;4.80;99.90
15072;DHT22;7635;56.696;13.002;2023-05-01T03:38:28;4.80;99.90
15072;DHT22;7635;56.696;13.002;2023-05-01T03:40:55;4.90;99.90
15072;DHT22;7635;56.696;13.002;2023-05-01T03:43:22;4.90;99.90
15072;DHT22;7635;56.696;13.002;2023-05-01T03:45:49;4.90;99.90
15072;DHT22;7635;56.696;13.002;2023-05-01T03:48:16;4.90;99.90
15072;DHT22;7635;56.696;13.002;2023-05-01T03:50:44;4.90;99.90
15072;DHT22;7635;56.696;13.002;2023-05-01T03:53:11;5.00;99.90
15072;DHT22;7635;56.696;13.002;2023-05-01T03:55:38;5.00;99.90
15072;DHT22;7635;56.696;13.002;2023-05-01T03:58:05;5.00;99.90
15072;DHT22;7635;56.696;13.002;2023-05-01T04:00:32;5.00;99.90
15072;DHT22;7635;56.696;13.002;2023-05-01T04:02:59;5.10;99.90
15072;DHT22;7635;56.696;13.002;2023-05-01T04:05:26;5.10;99.90
15072;DHT22;7635;56.696;13.002;2023-05-01T04:07:54;5.10;99.90
15072;DHT22;7635;56.696;13.002;2023-05-01T04:10:20;5.10;99.90
15072;DHT22;7635;56.696;13.002;2023-05-01T04:12:47;5.20;99.90
15072;DHT22;7635;56.696;13.002;2023-05-01T04:15:14;5.20;99.90
15072;DHT22;7635;56.696;13.002;2023-05-01T04:17:41;5.20;99.90
15072;DHT22;7635;56.696;13.002;2023-05-01T04:20:10;5.20;99.90
15072;DHT22;7635;56.696;13.002;2023-05-01T04:22:37;5.20;99.90
15072;DHT22;7635;56.696;13.002;2023-05-01T04:25:06;5.20;99.90
15072;DHT22;7635;56.696;13.002;2023-05-01T04:27:33;5.20;99.90
15072;DHT22;7635;56.696;13.002;2023-05-01T04:30:00;5.20;99.90
15072;DHT22;7635;56.696;13.002;2023-05-01T04:32:26;5.30;99.90
15072;DHT22;7635;56.696;13.002;2023-05-01T04:34:53;5.30;99.90
15072;DHT22;7635;56.696;13.002;2023-05-01T04:37:20;5.30;99.90
15072;DHT22;7635;56.696;13.002;2023-05-01T04:39:46;5.30;99.90
15072;DHT22;7635;56.696;13.002;2023-05-01T04:42:14;5.40;99.90
15072;DHT22;7635;56.696;13.002;2023-05-01T04:44:41;5.40;99.90
15072;DHT22;7635;56.696;13.002;2023-05-01T04:47:08;5.50;99.90
15072;DHT22;7635;56.696;13.002;2023-05-01T04:49:35;5.40;99.90
15072;DHT22;7635;56.696;13.002;2023-05-01T04:52:01;5.50;99.90
15072;DHT22;7635;56.696;13.002;2023-05-01T04:54:28;5.50;99.90
15072;DHT22;7635;56.696;13.002;2023-05-01T04:56:55;5.50;99.90
15072;DHT22;7635;56.696;13.002;2023-05-01T04:59:23;5.50;99.90
15072;DHT22;7635;56.696;13.002;2023-05-01T05:01:49;5.60;99.90
15072;DHT22;7635;56.696;13.002;2023-05-01T05:04:16;5.60;99.90
15072;DHT22;7635;56.696;13.002;2023-05-01T05:06:43;5.60;99.90
15072;DHT22;7635;56.696;13.002;2023-05-01T05:09:09;5.60;99.90
15072;DHT22;7635;56.696;13.002;2023-05-01T05:11:37;5.70;99.90
15072;DHT22;7635;56.696;13.002;2023-05-01T05:14:04;5.60;99.90
15072;DHT22;7635;56.696;13.002;2023-05-01T05:16:32;5.70;99.90
15072;DHT22;7635;56.696;13.002;2023-05-01T05:18:59;5.70;99.90
15072;DHT22;7635;56.696;13.002;2023-05-01T05:21:25;5.80;99.90
15072;DHT22;7635;56.696;13.002;2023-05-01T05:23:52;5.80;99.90
15072;DHT22;7635;56.696;13.002;2023-05-01T05:26:19;5.80;99.90
15072;DHT22;7635;56.696;13.002;2023-05-01T05:28:46;5.90;99.90
15072;DHT22;7635;56.696;13.002;2023-05-01T05:31:12;5.90;99.90
15072;DHT22;7635;56.696;13.002;2023-05-01T05:33:40;5.90;99.90
15072;DHT22;7635;56.696;13.002;2023-05-01T05:36:09;6.00;99.90
15072;DHT22;7635;56.696;13.002;2023-05-01T05:38:35;6.10;99.90
15072;DHT22;7635;56.696;13.002;2023-05-01T05:41:03;6.10;99.90
15072;DHT22;7635;56.696;13.002;2023-05-01T05:43:29;6.20;99.90
15072;DHT22;7635;56.696;13.002;2023-05-01T05:45:56;6.20;99.90
15072;DHT22;7635;56.696;13.002;2023-05-01T05:48:23;6.20;99.90
15072;DHT22;7635;56.696;13.002;2023-05-01T05:50:51;6.20;99.90
15072;DHT22;7635;56.696;13.002;2023-05-01T05:53:18;6.30;99.90
15072;DHT22;7635;56.696;13.002;2023-05-01T05:55:45;6.30;99.90
15072;DHT22;7635;56.696;13.002;2023-05-01T05:58:13;6.40;99.90
15072;DHT22;7635;56.696;13.002;2023-05-01T06:00:45;6.40;99.90
15072;DHT22;7635;56.696;13.002;2023-05-01T06:03:13;6.40;99.90
15072;DHT22;7635;56.696;13.002;2023-05-01T06:05:40;6.40;99.90
15072;DHT22;7635;56.696;13.002;2023-05-01T06:08:08;6.40;99.90
15072;DHT22;7635;56.696;13.002;2023-05-01T06:10:36;6.50;99.90
15072;DHT22;7635;56.696;13.002;2023-05-01T06:13:03;6.50;99.90
15072;DHT22;7635;56.696;13.002;2023-05-01T06:15:30;6.50;99.90
15072;DHT22;7635;56.696;13.002;2023-05-01T06:17:58;6.50;99.90
15072;DHT22;7635;56.696;13.002;2023-05-01T06:20:25;6.50;99.90
15072;DHT22;7635;56.696;13.002;2023-05-01T06:22:51;6.50;99.90
15072;DHT22;7635;56.696;13.002;2023-05-01T06:25:19;6.60;99.90
15072;DHT22;7635;56.696;13.002;2023-05-01T06:27:47;6.60;99.90
15072;DHT22;7635;56.696;13.002;2023-05-01T06:30:13;6.60;99.90
15072;DHT22;7635;56.696;13.002;2023-05-01T06:32:40;6.60;99.90
15072;DHT22;7635;56.696;13.002;2023-05-01T06:35:08;6.60;99.90
15072;DHT22;7635;56.696;13.002;2023-05-01T06:37:35;6.60;99.90
15072;DHT22;7635;56.696;13.002;2023-05-01T06:40:14;6.60;99.90
15072;DHT22;7635;56.696;13.002;2023-05-01T06:42:42;6.70;99.90
15072;DHT22;7635;56.696;13.002;2023-05-01T06:45:08;6.70;99.90
15072;DHT22;7635;56.696;13.002;2023-05-01T06:47:35;6.70;99.90
15072;DHT22;7635;56.696;13.002;2023-05-01T06:50:02;6.80;99.90
15072;DHT22;7635;56.696;13.002;2023-05-01T06:52:30;6.80;99.90
15072;DHT22;7635;56.696;13.002;2023-05-01T06:54:56;6.90;99.90
15072;DHT22;7635;56.696;13.002;2023-05-01T06:57:23;6.90;99.90
15072;DHT22;7635;56.696;13.002;2023-05-01T06:59:51;7.00;99.90
15072;DHT22;7635;56.696;13.002;2023-05-01T07:02:18;7.10;99.90
15072;DHT22;7635;56.696;13.002;2023-05-01T07:04:45;7.10;99.90
15072;DHT22;7635;56.696;13.002;2023-05-01T07:07:12;7.20;99.90
15072;DHT22;7635;56.696;13.002;2023-05-01T07:09:39;7.30;99.90
15072;DHT22;7635;56.696;13.002;2023-05-01T07:12:06;7.30;99.90
15072;DHT22;7635;56.696;13.002;2023-05-01T07:14:33;7.40;99.90
15072;DHT22;7635;56.696;13.002;2023-05-01T07:17:01;7.40;99.90
15072;DHT22;7635;56.696;13.002;2023-05-01T07:19:28;7.50;99.90
15072;DHT22;7635;56.696;13.002;2023-05-01T07:21:55;7.50;99.90
15072;DHT22;7635;56.696;13.002;2023-05-01T07:24:22;7.60;99.90
15072;DHT22;7635;56.696;13.002;2023-05-01T07:26:48;7.60;99.90
15072;DHT22;7635;56.696;13.002;2023-05-01T07:29:16;7.70;99.90
15072;DHT22;7635;56.696;13.002;2023-05-01T07:31:42;7.70;99.90
15072;DHT22;7635;56.696;13.002;2023-05-01T07:34:10;7.70;99.90
15072;DHT22;7635;56.696;13.002;2023-05-01T07:36:37;7.70;99.90
15072;DHT22;7635;56.696;13.002;2023-05-01T07:39:05;7.80;99.90
15072;DHT22;7635;56.696;13.002;2023-05-01T07:41:32;7.80;99.90
15072;DHT22;7635;56.696;13.002;2023-05-01T07:43:59;7.90;99.90
15072;DHT22;7635;56.696;13.002;2023-05-01T07:46:25;7.90;99.90
15072;DHT22;7635;56.696;13.002;2023-05-01T07:48:52;7.90;99.90
15072;DHT22;7635;56.696;13.002;2023-05-01T07:51:20;7.90;99.90
15072;DHT22;7635;56.696;13.002;2023-05-01T07:53:48;8.00;99.90
15072;DHT22;7635;56.696;13.002;2023-05-01T07:56:15;8.00;99.90
15072;DHT22;7635;56.696;13.002;2023-05-01T07:58:42;8.00;99.90
15072;DHT22;7635;56.696;13.002;2023-05-01T08:01:09;8.10;99.90
15072;DHT22;7635;56.696;13.002;2023-05-01T08:03:35;8.10;99.90
15072;DHT22;7635;56.696;13.002;2023-05-01T08:06:03;8.10;99.90
15072;DHT22;7635;56.696;13.002;2023-05-01T08:08:31;8.20;99.90
15072;DHT22;7635;56.696;13.002;2023-05-01T08:10:57;8.20;99.90
15072;DHT22;7635;56.696;13.002;2023-05-01T08:13:24;8.30;99.90
15072;DHT22;7635;56.696;13.002;2023-05-01T08:15:51;8.30;99.90
15072;DHT22;7635;56.696;13.002;2023-05-01T08:18:17;8.40;99.90
15072;DHT22;7635;56.696;13.002;2023-05-01T08:20:45;8.40;99.90
15072;DHT22;7635;56.696;13.002;2023-05-01T08:23:12;8.50;99.90
15072;DHT22;7635;56.696;13.002;2023-05-01T08:25:40;8.50;99.90
15072;DHT22;7635;56.696;13.002;2023-05-01T08:28:08;8.60;99.90
15072;DHT22;7635;56.696;13.002;2023-05-01T08:30:34;8.70;99.90
15072;DHT22;7635;56.696;13.002;2023-05-01T08:33:01;8.80;99.90
15072;DHT22;7635;56.696;13.002;2023-05-01T08:35:28;9.00;99.90
15072;DHT22;7635;56.696;13.002;2023-05-01T08:37:55;9.10;99.90
15072;DHT22;7635;56.696;13.002;2023-05-01T08:40:23;9.20;99.90
15072;DHT22;7635;56.696;13.002;2023-05-01T08:42:53;9.30;99.90
15072;DHT22;7635;56.696;13.002;2023-05-01T08:45:23;9.30;99.90
15072;DHT22;7635;56.696;13.002;2023-05-01T08:47:51;9.30;99.90
15072;DHT22;7635;56.696;13.002;2023-05-01T08:50:20;9.40;99.90
15072;DHT22;7635;56.696;13.002;2023-05-01T08:52:50;9.40;99.90
15072;DHT22;7635;56.696;13.002;2023-05-01T08:55:18;9.40;99.90
15072;DHT22;7635;56.696;13.002;2023-05-01T08:57:47;9.40;99.90
15072;DHT22;7635;56.696;13.002;2023-05-01T09:00:17;9.40;99.90
15072;DHT22;7635;56.696;13.002;2023-05-01T09:02:45;9.50;99.90
15072;DHT22;7635;56.696;13.002;2023-05-01T09:05:14;9.50;99.90
15072;DHT22;7635;56.696;13.002;2023-05-01T09:07:42;9.50;99.90
15072;DHT22;7635;56.696;13.002;2023-05-01T09:10:12;9.50;99.90
15072;DHT22;7635;56.696;13.002;2023-05-01T09:12:40;9.50;99.90
15072;DHT22;7635;56.696;13.002;2023-05-01T09:15:10;9.50;99.90
15072;DHT22;7635;56.696;13.002;2023-05-01T09:17:39;9.60;99.90
15072;DHT22;7635;56.696;13.002;2023-05-01T09:20:07;9.60;99.90
15072;DHT22;7635;56.696;13.002;2023-05-01T09:22:34;9.70;99.90
15072;DHT22;7635;56.696;13.002;2023-05-01T09:25:01;9.70;99.90
15072;DHT22;7635;56.696;13.002;2023-05-01T09:27:29;9.70;99.90
15072;DHT22;7635;56.696;13.002;2023-05-01T09:29:59;9.80;99.90
15072;DHT22;7635;56.696;13.002;2023-05-01T09:32:26;9.80;99.90
15072;DHT22;7635;56.696;13.002;2023-05-01T09:34:55;9.90;99.90
15072;DHT22;7635;56.696;13.002;2023-05-01T09:37:34;9.90;99.90
15072;DHT22;7635;56.696;13.002;2023-05-01T09:40:05;10.00;99.90
15072;DHT22;7635;56.696;13.002;2023-05-01T09:42:34;10.10;99.90
15072;DHT22;7635;56.696;13.002;2023-05-01T09:45:03;10.20;99.90
15072;DHT22;7635;56.696;13.002;2023-05-01T09:47:30;10.30;99.90
15072;DHT22;7635;56.696;13.002;2023-05-01T09:49:59;10.40;99.90
15072;DHT22;7635;56.696;13.002;2023-05-01T09:52:26;10.50;99.90
15072;DHT22;7635;56.696;13.002;2023-05-01T09:55:12;10.60;99.90
15072;DHT22;7635;56.696;13.002;2023-05-01T09:57:39;10.70;99.90
15072;DHT22;7635;56.696;13.002;2023-05-01T10:00:08;10.80;99.90
15072;DHT22;7635;56.696;13.002;2023-05-01T10:02:35;10.90;99.90
15072;DHT22;7635;56.696;13.002;2023-05-01T10:05:04;11.00;99.90
15072;DHT22;7635;56.696;13.002;2023-05-01T10:07:32;11.10;99.90
15072;DHT22;7635;56.696;13.002;2023-05-01T10:10:14;11.20;99.90
15072;DHT22;7635;56.696;13.002;2023-05-01T10:12:41;11.40;99.90
15072;DHT22;7635;56.696;13.002;2023-05-01T10:15:08;11.40;99.90
15072;DHT22;7635;56.696;13.002;2023-05-01T10:17:35;11.50;99.90
15072;DHT22;7635;56.696;13.002;2023-05-01T10:20:05;11.60;99.90
15072;DHT22;7635;56.696;13.002;2023-05-01T10:22:32;11.70;99.90
15072;DHT22;7635;56.696;13.002;2023-05-01T10:24:59;11.70;99.90
15072;DHT22;7635;56.696;13.002;2023-05-01T10:27:26;11.80;99.90
15072;DHT22;7635;56.696;13.002;2023-05-01T10:29:53;11.80;99.90
15072;DHT22;7635;56.696;13.002;2023-05-01T10:32:20;11.80;99.90
15072;DHT22;7635;56.696;13.002;2023-05-01T10:34:50;11.90;99.90
15072;DHT22;7635;56.696;13.002;2023-05-01T10:37:23;11.90;99.90
15072;DHT22;7635;56.696;13.002;2023-05-01T10:39:53;11.90;99.90
15072;DHT22;7635;56.696;13.002;2023-05-01T10:42:19;11.90;99.90
15072;DHT22;7635;56.696;13.002;2023-05-01T10:44:46;12.00;99.90
15072;DHT22;7635;56.696;13.002;2023-05-01T10:47:44;12.10;99.90
15072;DHT22;7635;56.696;13.002;2023-05-01T10:50:13;12.20;99.90
15072;DHT22;7635;56.696;13.002;2023-05-01T10:53:18;12.30;99.90
15072;DHT22;7635;56.696;13.002;2023-05-01T10:55:47;12.40;99.90
15072;DHT22;7635;56.696;13.002;2023-05-01T11:01:31;12.60;99.90
15072;DHT22;7635;56.696;13.002;2023-05-01T11:03:59;12.80;99.90
15072;DHT22;7635;56.696;13.002;2023-05-01T11:06:26;12.90;99.90
15072;DHT22;7635;56.696;13.002;2023-05-01T11:08:55;13.00;99.90
15072;DHT22;7635;56.696;13.002;2023-05-01T11:11:44;13.00;99.90
15072;DHT22;7635;56.696;13.002;2023-05-01T11:14:12;13.20;99.90
15072;DHT22;7635;56.696;13.002;2023-05-01T11:16:40;13.30;99.90
15072;DHT22;7635;56.696;13.002;2023-05-01T11:19:07;13.50;99.90
15072;DHT22;7635;56.696;13.002;2023-05-01T11:21:35;13.80;99.90
15072;DHT22;7635;56.696;13.002;2023-05-01T11:24:05;14.00;99.90
15072;DHT22;7635;56.696;13.002;2023-05-01T11:26:36;14.10;99.90
15072;DHT22;7635;56.696;13.002;2023-05-01T11:29:04;14.40;99.90
15072;DHT22;7635;56.696;13.002;2023-05-01T11:31:31;14.50;99.90
15072;DHT22;7635;56.696;13.002;2023-05-01T11:33:59;14.70;99.90
15072;DHT22;7635;56.696;13.002;2023-05-01T11:36:26;14.60;99.90
15072;DHT22;7635;56.696;13.002;2023-05-01T11:38:54;14.70;99.90
15072;DHT22;7635;56.696;13.002;2023-05-01T11:41:24;14.80;99.90
15072;DHT22;7635;56.696;13.002;2023-05-01T11:43:52;14.90;99.90
15072;DHT22;7635;56.696;13.002;2023-05-01T11:46:23;15.10;99.90
15072;DHT22;7635;56.696;13.002;2023-05-01T11:48:51;15.20;99.90
15072;DHT22;7635;56.696;13.002;2023-05-01T11:51:19;15.50;99.90
15072;DHT22;7635;56.696;13.002;2023-05-01T11:53:59;15.60;99.90
15072;DHT22;7635;56.696;13.002;2023-05-01T11:56:27;15.60;99.90
15072;DHT22;7635;56.696;13.002;2023-05-01T11:58:55;15.50;99.90
15072;DHT22;7635;56.696;13.002;2023-05-01T12:01:32;15.40;99.90
15072;DHT22;7635;56.696;13.002;2023-05-01T12:03:59;15.30;99.90
15072;DHT22;7635;56.696;13.002;2023-05-01T12:06:34;15.20;99.90
15072;DHT22;7635;56.696;13.002;2023-05-01T12:09:05;15.30;99.90
15072;DHT22;7635;56.696;13.002;2023-05-01T12:11:33;15.40;99.90
15072;DHT22;7635;56.696;13.002;2023-05-01T12:14:00;15.40;99.90
15072;DHT22;7635;56.696;13.002;2023-05-01T12:16:27;15.60;99.90
15072;DHT22;7635;56.696;13.002;2023-05-01T12:18:54;15.60;99.90
15072;DHT22;7635;56.696;13.002;2023-05-01T12:21:21;15.50;99.90
15072;DHT22;7635;56.696;13.002;2023-05-01T12:23:49;15.50;99.90
15072;DHT22;7635;56.696;13.002;2023-05-01T12:26:17;15.60;99.90
15072;DHT22;7635;56.696;13.002;2023-05-01T12:29:00;15.50;99.90
15072;DHT22;7635;56.696;13.002;2023-05-01T12:31:28;15.70;99.90
15072;DHT22;7635;56.696;13.002;2023-05-01T12:33:55;15.70;99.90
15072;DHT22;7635;56.696;13.002;2023-05-01T12:36:23;15.70;99.90
15072;DHT22;7635;56.696;13.002;2023-05-01T12:38:56;15.70;99.90
15072;DHT22;7635;56.696;13.002;2023-05-01T12:41:32;15.80;99.90
15072;DHT22;7635;56.696;13.002;2023-05-01T12:44:01;15.80;99.90
15072;DHT22;7635;56.696;13.002;2023-05-01T12:46:28;15.90;99.90
15072;DHT22;7635;56.696;13.002;2023-05-01T12:48:55;16.00;99.90
15072;DHT22;7635;56.696;13.002;2023-05-01T12:51:22;15.90;99.90
15072;DHT22;7635;56.696;13.002;2023-05-01T12:53:49;15.90;99.90
15072;DHT22;7635;56.696;13.002;2023-05-01T12:56:22;15.80;99.90
15072;DHT22;7635;56.696;13.002;2023-05-01T12:58:49;15.90;99.90
15072;DHT22;7635;56.696;13.002;2023-05-01T13:01:24;16.00;99.90
15072;DHT22;7635;56.696;13.002;2023-05-01T13:03:52;16.10;99.90
15072;DHT22;7635;56.696;13.002;2023-05-01T13:06:21;15.90;99.90
15072;DHT22;7635;56.696;13.002;2023-05-01T13:08:48;16.00;99.90
15072;DHT22;7635;56.696;13.002;2023-05-01T13:11:16;16.00;99.90
15072;DHT22;7635;56.696;13.002;2023-05-01T13:13:44;15.90;99.90
15072;DHT22;7635;56.696;13.002;2023-05-01T13:16:12;15.90;99.90
15072;DHT22;7635;56.696;13.002;2023-05-01T13:18:45;15.90;99.90
15072;DHT22;7635;56.696;13.002;2023-05-01T13:21:14;15.90;99.90
15072;DHT22;7635;56.696;13.002;2023-05-01T13:23:42;16.10;99.90
15072;DHT22;7635;56.696;13.002;2023-05-01T13:26:17;16.10;99.90
15072;DHT22;7635;56.696;13.002;2023-05-01T13:28:43;16.00;99.90
15072;DHT22;7635;56.696;13.002;2023-05-01T13:31:11;15.90;99.90
15072;DHT22;7635;56.696;13.002;2023-05-01T13:33:40;15.80;99.90
15072;DHT22;7635;56.696;13.002;2023-05-01T13:36:09;15.80;99.90
15072;DHT22;7635;56.696;13.002;2023-05-01T13:38:42;15.80;99.90
15072;DHT22;7635;56.696;13.002;2023-05-01T13:41:15;15.80;99.90
15072;DHT22;7635;56.696;13.002;2023-05-01T13:43:42;15.70;99.90
15072;DHT22;7635;56.696;13.002;2023-05-01T13:46:10;15.70;99.90
15072;DHT22;7635;56.696;13.002;2023-05-01T13:48:38;15.60;99.90
15072;DHT22;7635;56.696;13.002;2023-05-01T13:51:05;15.60;99.90
15072;DHT22;7635;56.696;13.002;2023-05-01T13:53:33;15.60;99.90
15072;DHT22;7635;56.696;13.002;2023-05-01T13:56:00;15.60;99.90
15072;DHT22;7635;56.696;13.002;2023-05-01T13:58:27;15.60;99.90
15072;DHT22;7635;56.696;13.002;2023-05-01T14:00:54;15.50;99.90
15072;DHT22;7635;56.696;13.002;2023-05-01T14:03:21;15.50;99.90
15072;DHT22;7635;56.696;13.002;2023-05-01T14:05:48;15.50;99.90
15072;DHT22;7635;56.696;13.002;2023-05-01T14:08:14;15.50;99.90
15072;DHT22;7635;56.696;13.002;2023-05-01T14:10:42;15.50;99.90
15072;DHT22;7635;56.696;13.002;2023-05-01T14:13:09;15.50;99.90
15072;DHT22;7635;56.696;13.002;2023-05-01T14:15:38;15.50;99.90
15072;DHT22;7635;56.696;13.002;2023-05-01T14:18:09;15.40;99.90
15072;DHT22;7635;56.696;13.002;2023-05-01T14:20:37;15.40;99.90
15072;DHT22;7635;56.696;13.002;2023-05-01T14:23:05;15.50;99.90
15072;DHT22;7635;56.696;13.002;2023-05-01T14:25:32;15.40;99.90
15072;DHT22;7635;56.696;13.002;2023-05-01T14:28:04;15.40;99.90
15072;DHT22;7635;56.696;13.002;2023-05-01T14:30:34;15.40;99.90
15072;DHT22;7635;56.696;13.002;2023-05-01T14:33:03;15.30;99.90
15072;DHT22;7635;56.696;13.002;2023-05-01T14:35:30;15.30;99.90
15072;DHT22;7635;56.696;13.002;2023-05-01T14:38:06;15.30;99.90
15072;DHT22;7635;56.696;13.002;2023-05-01T14:40:33;15.20;99.90
15072;DHT22;7635;56.696;13.002;2023-05-01T14:43:01;15.30;99.90
15072;DHT22;7635;56.696;13.002;2023-05-01T14:45:29;15.30;99.90
15072;DHT22;7635;56.696;13.002;2023-05-01T14:47:56;15.30;99.90
15072;DHT22;7635;56.696;13.002;2023-05-01T14:50:23;15.20;99.90
15072;DHT22;7635;56.696;13.002;2023-05-01T14:52:53;15.20;99.90
15072;DHT22;7635;56.696;13.002;2023-05-01T14:55:25;15.20;99.90
15072;DHT22;7635;56.696;13.002;2023-05-01T14:57:52;15.20;99.90
15072;DHT22;7635;56.696;13.002;2023-05-01T15:00:21;15.20;99.90
15072;DHT22;7635;56.696;13.002;2023-05-01T15:02:48;15.20;99.90
15072;DHT22;7635;56.696;13.002;2023-05-01T15:05:15;15.30;99.90
15072;DHT22;7635;56.696;13.002;2023-05-01T15:07:43;15.30;99.90
15072;DHT22;7635;56.696;13.002;2023-05-01T15:10:10;15.30;99.90
15072;DHT22;7635;56.696;13.002;2023-05-01T15:12:37;15.20;99.90
15072;DHT22;7635;56.696;13.002;2023-05-01T15:15:04;15.20;99.90
15072;DHT22;7635;56.696;13.002;2023-05-01T15:17:33;15.20;99.90
15072;DHT22;7635;56.696;13.002;2023-05-01T15:19:59;15.10;99.90
15072;DHT22;7635;56.696;13.002;2023-05-01T15:22:26;15.10;99.90
15072;DHT22;7635;56.696;13.002;2023-05-01T15:24:53;15.10;99.90
15072;DHT22;7635;56.696;13.002;2023-05-01T15:27:19;15.10;99.90
15072;DHT22;7635;56.696;13.002;2023-05-01T15:29:46;15.10;99.90
15072;DHT22;7635;56.696;13.002;2023-05-01T15:32:13;15.00;99.90
15072;DHT22;7635;56.696;13.002;2023-05-01T15:34:41;14.90;99.90
15072;DHT22;7635;56.696;13.002;2023-05-01T15:37:08;14.90;99.90
15072;DHT22;7635;56.696;13.002;2023-05-01T15:39:35;14.90;99.90
15072;DHT22;7635;56.696;13.002;2023-05-01T15:42:03;14.90;99.90
15072;DHT22;7635;56.696;13.002;2023-05-01T15:44:29;14.80;99.90
15072;DHT22;7635;56.696;13.002;2023-05-01T15:46:56;14.80;99.90
15072;DHT22;7635;56.696;13.002;2023-05-01T15:49:23;14.90;99.90
15072;DHT22;7635;56.696;13.002;2023-05-01T15:51:51;14.80;99.90